Time;durP1;ratioP1;P1;durP2;ratioP2;P2;SDS_P1;SDS_P2;PMS_P1;PMS_P2;Temp;Humidity;BMP_temperature;BMP_pressure;BME280_temperature;BME280_humidity;BME280_pressure;Samples;Min_cycle;Max_cycle;Signal;HPM_P1;HPM_P2
2021/05/05 00:00:23;;;;;;;3.20;2.00;;;7.30;99.90;;;;;;5031003;28;20075;-72
2021/05/05 00:02:49;;;;;;;3.08;1.80;;;7.30;99.90;;;;;;5023045;28;20022;-72
2021/05/05 00:05:14;;;;;;;3.55;2.05;;;7.40;99.90;;;;;;5028423;28;20096;-72
2021/05/05 00:07:41;;;;;;;3.63;1.63;;;7.30;99.90;;;;;;5015449;28;20024;-71
2021/05/05 00:10:08;;;;;;;3.75;1.67;;;7.30;99.90;;;;;;5014375;28;20029;-71
2021/05/05 00:12:35;;;;;;;3.28;1.63;;;7.20;99.90;;;;;;5022887;28;20439;-72
2021/05/05 00:15:01;;;;;;;3.83;1.80;;;7.20;99.90;;;;;;5026978;28;20053;-72
2021/05/05 00:17:26;;;;;;;2.70;1.88;;;7.20;99.90;;;;;;5025118;28;20052;-73
2021/05/05 00:19:52;;;;;;;2.08;1.80;;;7.20;99.90;;;;;;5023136;28;20537;-73
2021/05/05 00:22:17;;;;;;;2.47;2.10;;;7.20;99.90;;;;;;5022700;28;20033;-73
2021/05/05 00:24:43;;;;;;;3.42;1.98;;;7.20;99.90;;;;;;5025988;28;20029;-71
2021/05/05 00:27:08;;;;;;;2.90;2.15;;;7.20;99.90;;;;;;5018428;28;20172;-72
2021/05/05 00:29:34;;;;;;;4.72;2.20;;;7.30;99.90;;;;;;5025961;28;20383;-71
2021/05/05 00:31:59;;;;;;;4.78;2.17;;;7.20;99.90;;;;;;5026084;28;20167;-71
2021/05/05 00:34:25;;;;;;;4.28;2.20;;;7.30;99.90;;;;;;5024641;28;20034;-72
2021/05/05 00:36:51;;;;;;;2.85;1.90;;;7.30;99.90;;;;;;5008699;28;20033;-72
2021/05/05 00:39:16;;;;;;;3.75;2.10;;;7.30;99.90;;;;;;5011865;28;20128;-72
2021/05/05 00:41:42;;;;;;;3.45;1.90;;;7.30;99.90;;;;;;5026180;28;20540;-71
2021/05/05 00:44:07;;;;;;;2.97;2.10;;;7.20;99.90;;;;;;5029354;28;20037;-71
2021/05/05 00:46:33;;;;;;;3.08;2.03;;;7.40;99.90;;;;;;5024644;28;21355;-72
2021/05/05 00:48:58;;;;;;;2.85;1.90;;;7.30;99.90;;;;;;5013951;28;20148;-72
2021/05/05 00:51:24;;;;;;;5.50;2.45;;;7.20;99.90;;;;;;5022873;28;20037;-71
2021/05/05 00:53:50;;;;;;;2.90;1.80;;;7.20;99.90;;;;;;5024649;28;20404;-72
2021/05/05 00:56:16;;;;;;;3.17;2.00;;;7.30;99.90;;;;;;5024548;28;20650;-72
2021/05/05 00:58:42;;;;;;;4.70;2.03;;;7.30;99.90;;;;;;5011563;28;20030;-72
2021/05/05 01:01:07;;;;;;;2.65;1.80;;;7.30;99.90;;;;;;5023336;28;20540;-72
2021/05/05 01:03:33;;;;;;;5.40;2.20;;;7.30;99.90;;;;;;5025358;28;20359;-73
2021/05/05 01:06:01;;;;;;;5.28;1.85;;;7.30;99.90;;;;;;5023245;28;20080;-72
2021/05/05 01:08:27;;;;;;;2.33;1.80;;;7.30;99.90;;;;;;5006665;28;20429;-73
2021/05/05 01:10:52;;;;;;;3.40;1.83;;;7.30;99.90;;;;;;5025800;28;20091;-72
2021/05/05 01:13:19;;;;;;;2.85;1.75;;;7.30;99.90;;;;;;5012883;28;20022;-72
2021/05/05 01:15:45;;;;;;;3.42;1.90;;;7.30;99.90;;;;;;5027829;28;20097;-72
2021/05/05 01:18:11;;;;;;;5.53;1.98;;;7.30;99.90;;;;;;5032283;28;20021;-72
2021/05/05 01:20:38;;;;;;;4.40;2.10;;;7.40;99.90;;;;;;5022850;28;20088;-73
2021/05/05 01:23:04;;;;;;;5.38;2.10;;;7.40;99.90;;;;;;5027655;28;20066;-72
2021/05/05 01:25:29;;;;;;;4.15;1.95;;;7.30;99.90;;;;;;5026432;28;21315;-74
2021/05/05 01:27:55;;;;;;;1.98;1.55;;;7.40;99.90;;;;;;5025917;28;20487;-72
2021/05/05 01:30:22;;;;;;;2.88;1.80;;;7.40;99.90;;;;;;5023183;28;20022;-72
2021/05/05 01:32:49;;;;;;;2.70;1.92;;;7.40;99.90;;;;;;5024804;28;20033;-72
2021/05/05 01:35:17;;;;;;;2.50;1.70;;;7.30;99.90;;;;;;5010950;28;20026;-72
2021/05/05 01:37:43;;;;;;;2.85;1.75;;;7.30;99.90;;;;;;5024421;28;20063;-71
2021/05/05 01:40:11;;;;;;;2.97;1.67;;;7.20;99.90;;;;;;5024317;28;20022;-72
2021/05/05 01:42:37;;;;;;;2.63;1.60;;;7.20;99.90;;;;;;5024637;28;20113;-72
2021/05/05 01:45:03;;;;;;;4.47;1.70;;;7.20;99.90;;;;;;5023577;28;20061;-72
2021/05/05 01:47:29;;;;;;;3.15;1.83;;;7.20;99.90;;;;;;5024202;28;20033;-71
2021/05/05 01:49:55;;;;;;;4.80;1.90;;;7.30;99.90;;;;;;5023345;28;20022;-72
2021/05/05 01:52:21;;;;;;;3.55;1.70;;;7.30;99.90;;;;;;5028056;28;20033;-72
2021/05/05 01:54:47;;;;;;;4.63;1.80;;;7.30;99.90;;;;;;5007493;28;20467;-72
2021/05/05 01:57:32;;;;;;;3.00;1.60;;;7.30;99.90;;;;;;5022195;28;20053;-74
2021/05/05 02:00:03;;;;;;;5.03;1.73;;;7.30;99.90;;;;;;4995628;28;20022;-73
2021/05/05 02:02:30;;;;;;;4.97;2.10;;;7.20;99.90;;;;;;5009162;28;20026;-74
2021/05/05 02:04:56;;;;;;;4.93;1.90;;;7.20;99.90;;;;;;5032204;28;20025;-74
2021/05/05 02:07:22;;;;;;;4.40;1.83;;;7.20;99.90;;;;;;5017969;28;20022;-74
2021/05/05 02:09:48;;;;;;;3.90;1.80;;;7.10;99.90;;;;;;5012591;28;20100;-74
2021/05/05 02:12:15;;;;;;;3.88;1.83;;;7.20;99.90;;;;;;5005746;28;20034;-74
2021/05/05 02:14:42;;;;;;;3.15;1.83;;;7.10;99.90;;;;;;5012337;28;20036;-73
2021/05/05 02:17:07;;;;;;;3.88;1.77;;;7.20;99.90;;;;;;5012579;28;20037;-74
2021/05/05 02:19:33;;;;;;;4.40;1.90;;;7.10;99.90;;;;;;5012387;28;20089;-74
2021/05/05 02:21:58;;;;;;;5.47;1.90;;;7.10;99.90;;;;;;4994831;28;20034;-74
2021/05/05 02:24:24;;;;;;;3.85;2.05;;;7.10;99.90;;;;;;5012126;28;20037;-73
2021/05/05 02:26:50;;;;;;;3.33;1.70;;;7.10;99.90;;;;;;4994730;28;20041;-76
2021/05/05 02:29:15;;;;;;;4.47;1.83;;;7.10;99.90;;;;;;4994810;28;20026;-73
2021/05/05 02:31:41;;;;;;;4.82;1.65;;;7.00;99.90;;;;;;5012182;28;20025;-74
2021/05/05 02:34:07;;;;;;;3.67;1.90;;;7.00;99.90;;;;;;5011979;28;20083;-74
2021/05/05 02:36:33;;;;;;;4.35;2.13;;;7.00;99.90;;;;;;5025449;28;20040;-73
2021/05/05 02:39:02;;;;;;;2.47;1.67;;;7.00;99.90;;;;;;5012725;28;20033;-73
2021/05/05 02:41:28;;;;;;;4.00;1.95;;;7.00;99.90;;;;;;4999866;28;20029;-72
2021/05/05 02:43:53;;;;;;;2.45;1.80;;;7.00;99.90;;;;;;5019757;28;20025;-71
2021/05/05 02:46:19;;;;;;;7.90;2.40;;;7.00;99.90;;;;;;5000911;28;20026;-72
2021/05/05 02:48:44;;;;;;;5.10;2.20;;;7.00;99.90;;;;;;5014187;28;20087;-71
2021/05/05 02:51:10;;;;;;;4.35;2.10;;;7.00;99.90;;;;;;5018349;28;20029;-71
2021/05/05 02:53:36;;;;;;;5.22;1.75;;;6.90;99.90;;;;;;5024123;28;20069;-71
2021/05/05 02:56:02;;;;;;;5.32;2.08;;;6.90;99.90;;;;;;5025191;28;20026;-72
2021/05/05 02:58:28;;;;;;;6.60;2.13;;;6.90;99.90;;;;;;5012392;28;20099;-71
2021/05/05 03:00:53;;;;;;;4.72;2.08;;;6.90;99.90;;;;;;5025218;28;20495;-74
2021/05/05 03:03:19;;;;;;;4.20;1.85;;;6.90;99.90;;;;;;5019286;28;20104;-73
2021/05/05 03:05:44;;;;;;;4.15;1.85;;;6.90;99.90;;;;;;5000619;28;20052;-71
2021/05/05 03:08:10;;;;;;;3.15;1.80;;;6.80;99.90;;;;;;5024221;28;20392;-71
2021/05/05 03:10:36;;;;;;;5.93;1.90;;;6.80;99.90;;;;;;5007229;28;20041;-71
2021/05/05 03:13:01;;;;;;;3.35;2.20;;;6.80;99.90;;;;;;5010941;28;20033;-72
2021/05/05 03:15:27;;;;;;;3.92;2.00;;;6.80;99.90;;;;;;5010661;28;20032;-74
2021/05/05 03:17:53;;;;;;;6.28;1.95;;;6.80;99.90;;;;;;5010979;28;20029;-74
2021/05/05 03:20:19;;;;;;;5.45;2.13;;;6.90;99.90;;;;;;4993144;28;20029;-74
2021/05/05 03:22:44;;;;;;;5.07;2.05;;;6.80;99.90;;;;;;5010794;28;20026;-74
2021/05/05 03:25:10;;;;;;;3.63;1.98;;;6.80;99.90;;;;;;5006422;28;20022;-72
2021/05/05 03:27:36;;;;;;;2.22;1.77;;;6.90;99.90;;;;;;5010950;28;20049;-73
2021/05/05 03:30:04;;;;;;;4.88;1.85;;;6.80;99.90;;;;;;5024162;28;20155;-73
2021/05/05 03:32:29;;;;;;;5.25;1.88;;;6.90;99.90;;;;;;5017675;28;20120;-72
2021/05/05 03:34:55;;;;;;;4.82;1.75;;;6.90;99.90;;;;;;5016684;28;20112;-72
2021/05/05 03:37:21;;;;;;;3.80;1.90;;;6.90;99.90;;;;;;5010711;28;20029;-73
2021/05/05 03:39:46;;;;;;;11.65;4.20;;;6.90;99.90;;;;;;5023961;28;20113;-72
2021/05/05 03:42:12;;;;;;;3.78;2.15;;;7.00;99.90;;;;;;5012856;28;20108;-73
2021/05/05 03:44:38;;;;;;;4.25;2.08;;;6.90;99.90;;;;;;5012401;28;20022;-72
2021/05/05 03:47:03;;;;;;;4.60;1.80;;;6.90;99.90;;;;;;5010655;28;20034;-73
2021/05/05 03:49:29;;;;;;;4.30;2.08;;;6.90;99.90;;;;;;5010610;28;20034;-72
2021/05/05 03:51:54;;;;;;;4.78;1.67;;;6.80;99.90;;;;;;5010650;28;20022;-74
2021/05/05 03:54:20;;;;;;;5.38;2.03;;;6.80;99.90;;;;;;4994157;28;20102;-73
2021/05/05 03:56:46;;;;;;;4.53;1.85;;;6.70;99.90;;;;;;5009578;28;20026;-74
2021/05/05 03:59:11;;;;;;;4.18;2.13;;;6.70;99.90;;;;;;4996374;28;20080;-74
2021/05/05 04:01:37;;;;;;;5.70;2.10;;;6.80;99.90;;;;;;4999042;28;20101;-74
2021/05/05 04:04:03;;;;;;;4.03;1.90;;;6.70;99.90;;;;;;5026329;28;20035;-73
2021/05/05 04:06:29;;;;;;;4.57;1.88;;;6.80;99.90;;;;;;5033288;28;20052;-72
2021/05/05 04:08:54;;;;;;;4.75;1.98;;;6.80;99.90;;;;;;5021031;28;20034;-73
2021/05/05 04:11:20;;;;;;;4.33;2.10;;;6.80;99.90;;;;;;4993322;28;536637;-74
2021/05/05 04:13:45;;;;;;;4.85;1.88;;;6.80;99.90;;;;;;5030470;28;20316;-73
2021/05/05 04:16:11;;;;;;;5.13;2.13;;;6.80;99.90;;;;;;5019939;28;20396;-72
2021/05/05 04:18:36;;;;;;;3.08;2.03;;;6.80;99.90;;;;;;5017760;28;20033;-74
2021/05/05 04:21:04;;;;;;;3.05;1.98;;;6.80;99.90;;;;;;5001348;28;20029;-74
2021/05/05 04:23:31;;;;;;;5.47;1.80;;;6.80;99.90;;;;;;5004970;28;20399;-73
2021/05/05 04:25:57;;;;;;;4.03;2.00;;;6.80;99.90;;;;;;5003965;28;20033;-73
2021/05/05 04:28:23;;;;;;;5.07;1.90;;;6.80;99.90;;;;;;5010139;28;20030;-73
2021/05/05 04:30:49;;;;;;;5.18;2.00;;;6.80;99.90;;;;;;5006419;28;20034;-74
2021/05/05 04:33:15;;;;;;;5.47;2.20;;;6.90;99.90;;;;;;5011880;28;20030;-75
2021/05/05 04:35:40;;;;;;;4.20;2.17;;;6.80;99.90;;;;;;5027658;28;20036;-73
2021/05/05 04:38:06;;;;;;;4.75;1.85;;;6.80;99.90;;;;;;4996940;28;20105;-73
2021/05/05 04:40:32;;;;;;;2.85;2.25;;;6.90;99.90;;;;;;4996670;28;20038;-72
2021/05/05 04:42:57;;;;;;;3.22;2.03;;;6.90;99.90;;;;;;5005978;28;20122;-73
2021/05/05 04:45:23;;;;;;;3.75;2.75;;;6.90;99.90;;;;;;4989689;28;20070;-74
2021/05/05 04:47:48;;;;;;;4.13;2.35;;;6.90;99.90;;;;;;5034029;28;20037;-74
2021/05/05 04:50:14;;;;;;;4.43;2.55;;;6.90;99.90;;;;;;5033714;28;20029;-73
2021/05/05 04:52:39;;;;;;;4.57;2.53;;;6.90;99.90;;;;;;5033851;28;20022;-73
2021/05/05 04:55:06;;;;;;;6.68;3.08;;;7.00;99.90;;;;;;5027996;28;20048;-74
2021/05/05 04:57:33;;;;;;;5.68;3.80;;;6.90;99.90;;;;;;5013968;28;20021;-73
2021/05/05 04:59:58;;;;;;;6.97;2.90;;;6.90;99.90;;;;;;5019628;28;20022;-72
2021/05/05 05:02:24;;;;;;;6.45;3.22;;;6.80;99.90;;;;;;5033674;28;20399;-72
2021/05/05 05:04:49;;;;;;;3.78;2.53;;;6.90;99.90;;;;;;5032603;28;20033;-74
2021/05/05 05:07:15;;;;;;;5.40;2.72;;;7.00;99.90;;;;;;5015295;28;20036;-74
2021/05/05 05:09:40;;;;;;;4.82;2.92;;;7.00;99.90;;;;;;5033657;28;20033;-73
2021/05/05 05:12:06;;;;;;;7.30;4.72;;;7.00;99.90;;;;;;5015862;28;20116;-74
2021/05/05 05:14:32;;;;;;;8.48;5.78;;;7.10;99.90;;;;;;5009764;28;20036;-74
2021/05/05 05:16:58;;;;;;;9.25;5.70;;;7.10;99.90;;;;;;5013751;28;20525;-74
2021/05/05 05:19:24;;;;;;;12.07;6.97;;;7.00;99.90;;;;;;5013574;28;20014;-74
2021/05/05 05:21:49;;;;;;;13.73;8.20;;;7.10;99.90;;;;;;5013437;28;20033;-72
2021/05/05 05:24:15;;;;;;;14.10;10.25;;;7.10;99.90;;;;;;5026579;28;20026;-72
2021/05/05 05:26:40;;;;;;;9.65;6.07;;;7.00;99.90;;;;;;5026175;28;20056;-71
2021/05/05 05:29:06;;;;;;;8.30;5.72;;;7.00;99.90;;;;;;5019971;28;20025;-72
2021/05/05 05:31:32;;;;;;;6.05;3.13;;;7.10;99.90;;;;;;5020564;28;20038;-72
2021/05/05 05:33:58;;;;;;;4.50;3.15;;;7.20;99.90;;;;;;5013030;28;20037;-72
2021/05/05 05:36:24;;;;;;;5.55;2.67;;;7.20;99.90;;;;;;5002877;28;20026;-71
2021/05/05 05:38:49;;;;;;;5.43;3.13;;;7.10;99.90;;;;;;5013351;28;20032;-72
2021/05/05 05:41:15;;;;;;;4.95;2.65;;;7.00;99.90;;;;;;5013353;28;20144;-72
2021/05/05 05:43:40;;;;;;;3.63;2.70;;;7.10;99.90;;;;;;5013043;28;20632;-72
2021/05/05 05:46:06;;;;;;;12.85;8.55;;;7.30;99.90;;;;;;5013167;28;20025;-72
2021/05/05 05:48:32;;;;;;;20.48;13.63;;;7.40;99.90;;;;;;5018998;28;20039;-72
2021/05/05 05:50:59;;;;;;;20.67;12.98;;;7.60;99.90;;;;;;5020675;28;20061;-72
2021/05/05 05:53:24;;;;;;;11.13;6.57;;;7.60;99.90;;;;;;5031854;28;20053;-73
2021/05/05 05:55:50;;;;;;;3.70;3.28;;;7.70;99.90;;;;;;5002448;28;20116;-72
2021/05/05 05:58:16;;;;;;;10.52;4.78;;;7.70;99.90;;;;;;5018942;28;20025;-74
2021/05/05 06:00:42;;;;;;;6.50;4.05;;;7.70;99.90;;;;;;5032678;28;20024;-74
2021/05/05 06:03:07;;;;;;;4.55;2.90;;;7.80;99.90;;;;;;5014927;28;20112;-74
2021/05/05 06:05:34;;;;;;;4.50;3.15;;;7.80;99.90;;;;;;5014897;28;20392;-74
2021/05/05 06:08:00;;;;;;;5.78;3.65;;;7.70;99.90;;;;;;5032621;28;20021;-73
2021/05/05 06:10:26;;;;;;;7.53;2.90;;;7.50;99.90;;;;;;5032528;28;20021;-73
2021/05/05 06:12:51;;;;;;;6.78;4.15;;;7.60;99.90;;;;;;5014958;28;20030;-74
2021/05/05 06:15:17;;;;;;;6.35;2.90;;;7.70;99.90;;;;;;5022267;28;20021;-74
2021/05/05 06:17:42;;;;;;;4.00;2.63;;;7.70;99.90;;;;;;4997647;28;20022;-73
2021/05/05 06:20:09;;;;;;;11.38;3.47;;;7.60;99.90;;;;;;5012111;28;20037;-73
2021/05/05 06:22:35;;;;;;;5.43;3.78;;;7.70;99.90;;;;;;5016380;28;20025;-73
2021/05/05 06:25:02;;;;;;;7.30;3.00;;;7.90;99.90;;;;;;5026138;28;20079;-72
2021/05/05 06:27:28;;;;;;;5.18;3.10;;;7.90;99.90;;;;;;5025562;28;20071;-73
2021/05/05 06:29:54;;;;;;;6.03;3.13;;;8.00;99.90;;;;;;5002235;28;20025;-71
2021/05/05 06:32:19;;;;;;;8.52;3.25;;;8.00;99.90;;;;;;5007912;28;20036;-72
2021/05/05 06:34:45;;;;;;;5.05;3.20;;;8.20;99.90;;;;;;5024870;28;20029;-72
2021/05/05 06:37:10;;;;;;;5.95;2.70;;;8.30;99.90;;;;;;5018906;28;20436;-72
2021/05/05 06:39:36;;;;;;;5.60;2.47;;;8.20;99.90;;;;;;5019970;28;20026;-71
2021/05/05 06:42:01;;;;;;;4.65;2.75;;;8.10;99.90;;;;;;5007889;28;20088;-72
2021/05/05 06:44:27;;;;;;;9.50;3.08;;;8.20;99.90;;;;;;5024388;28;20029;-71
2021/05/05 06:46:55;;;;;;;8.90;3.13;;;8.00;99.90;;;;;;5013135;28;20085;-72
2021/05/05 06:49:22;;;;;;;6.72;2.53;;;8.10;99.90;;;;;;5012526;28;20022;-71
2021/05/05 06:51:47;;;;;;;4.15;2.72;;;8.00;99.90;;;;;;5007809;28;20072;-72
2021/05/05 06:54:14;;;;;;;7.82;2.63;;;8.20;99.90;;;;;;5012055;28;20030;-69
2021/05/05 06:56:40;;;;;;;4.28;2.40;;;8.40;99.90;;;;;;5012249;28;20026;-71
2021/05/05 06:59:05;;;;;;;5.38;2.25;;;8.30;99.90;;;;;;5025307;28;20031;-69
2021/05/05 07:01:31;;;;;;;5.00;2.47;;;8.30;99.90;;;;;;5032140;28;20017;-72
2021/05/05 07:03:56;;;;;;;4.53;2.50;;;8.20;99.90;;;;;;5002177;28;20022;-72
2021/05/05 07:06:22;;;;;;;6.38;2.55;;;8.20;99.90;;;;;;5013021;28;20053;-71
2021/05/05 07:08:47;;;;;;;5.85;2.53;;;8.30;99.90;;;;;;5007075;28;20026;-72
2021/05/05 07:11:13;;;;;;;4.22;2.38;;;8.60;99.90;;;;;;4994989;28;20132;-71
2021/05/05 07:13:39;;;;;;;5.25;2.35;;;8.60;99.90;;;;;;5006706;28;20518;-71
2021/05/05 07:16:04;;;;;;;5.85;3.17;;;8.50;99.90;;;;;;5018405;28;20174;-71
2021/05/05 07:18:30;;;;;;;5.32;2.38;;;8.50;99.90;;;;;;5016355;28;20033;-71
2021/05/05 07:20:58;;;;;;;7.65;2.83;;;8.20;99.90;;;;;;4998160;28;20022;-71
2021/05/05 07:23:25;;;;;;;4.03;2.40;;;8.20;99.90;;;;;;5006377;28;20155;-72
2021/05/05 07:25:51;;;;;;;4.72;2.40;;;8.40;99.90;;;;;;5018304;28;20033;-71
2021/05/05 07:28:16;;;;;;;4.70;2.65;;;8.40;99.90;;;;;;5019464;28;20384;-71
2021/05/05 07:30:42;;;;;;;5.13;2.60;;;8.50;99.90;;;;;;5029030;28;20033;-72
2021/05/05 07:33:08;;;;;;;5.40;2.40;;;8.50;99.90;;;;;;5027779;28;20047;-70
2021/05/05 07:35:33;;;;;;;4.70;2.58;;;8.30;99.90;;;;;;5022046;28;20021;-71
2021/05/05 07:38:16;;;;;;;6.93;2.65;;;8.70;99.90;;;;;;5023315;28;20037;-72
2021/05/05 07:50:49;;;;;;;5.13;2.58;;;10.10;99.90;;;;;;5026468;28;20032;-71
2021/05/05 07:53:15;;;;;;;5.47;2.38;;;9.50;99.90;;;;;;5017300;28;20034;-71
2021/05/05 07:55:40;;;;;;;3.20;1.90;;;9.20;99.90;;;;;;5025972;28;20033;-71
2021/05/05 07:58:06;;;;;;;3.10;2.10;;;9.30;99.90;;;;;;5017238;28;20033;-71
2021/05/05 08:00:32;;;;;;;6.22;2.22;;;9.70;99.90;;;;;;5035027;28;20025;-72
2021/05/05 08:02:58;;;;;;;5.25;2.80;;;10.10;99.90;;;;;;4999868;28;20030;-71
2021/05/05 08:05:23;;;;;;;4.28;2.15;;;10.30;99.90;;;;;;4997343;28;20408;-72
2021/05/05 08:07:53;;;;;;;5.78;2.50;;;10.20;99.90;;;;;;5019330;28;20061;-72
2021/05/05 08:10:19;;;;;;;5.45;2.30;;;10.30;99.90;;;;;;5034639;28;20409;-71
2021/05/05 08:12:44;;;;;;;5.65;2.60;;;10.20;99.90;;;;;;5034685;28;20480;-72
2021/05/05 08:15:11;;;;;;;4.60;2.15;;;10.30;99.90;;;;;;5005163;28;20109;-71
2021/05/05 08:17:36;;;;;;;4.30;2.13;;;10.30;99.90;;;;;;4997408;28;20033;-71
2021/05/05 08:20:04;;;;;;;2.83;1.77;;;10.60;99.90;;;;;;4993469;28;20443;-71
2021/05/05 08:22:29;;;;;;;3.80;2.30;;;10.50;99.90;;;;;;5027976;28;20488;-72
2021/05/05 08:24:55;;;;;;;2.47;1.80;;;9.90;99.90;;;;;;5014578;28;20022;-71
2021/05/05 08:27:22;;;;;;;3.72;2.20;;;9.70;99.90;;;;;;5024534;28;20026;-71
2021/05/05 08:29:47;;;;;;;4.22;2.15;;;9.40;99.90;;;;;;5023192;28;20060;-73
2021/05/05 08:32:13;;;;;;;3.63;1.90;;;9.30;99.90;;;;;;5016865;28;20029;-71
2021/05/05 08:34:39;;;;;;;3.88;2.20;;;8.90;99.90;;;;;;5014366;28;20057;-72
2021/05/05 08:37:04;;;;;;;4.10;2.05;;;8.90;99.90;;;;;;5014635;28;20050;-73
2021/05/05 08:39:30;;;;;;;2.70;1.75;;;9.10;99.90;;;;;;5014710;28;20081;-73
2021/05/05 08:41:57;;;;;;;4.05;2.05;;;9.10;99.90;;;;;;5014299;28;20101;-72
2021/05/05 08:44:24;;;;;;;4.40;2.17;;;9.40;99.90;;;;;;5014249;28;20017;-73
2021/05/05 08:46:49;;;;;;;2.90;1.75;;;9.10;99.90;;;;;;4996897;28;20133;-73
2021/05/05 08:49:16;;;;;;;3.60;1.90;;;9.00;99.90;;;;;;4996669;28;20488;-71
2021/05/05 08:51:43;;;;;;;5.13;2.17;;;8.90;99.90;;;;;;5014365;28;20048;-72
2021/05/05 08:54:09;;;;;;;4.15;1.92;;;9.00;99.90;;;;;;5013996;28;20455;-71
2021/05/05 08:56:36;;;;;;;3.88;2.35;;;9.00;99.90;;;;;;5014218;28;20061;-71
2021/05/05 08:59:06;;;;;;;3.60;2.10;;;8.90;99.90;;;;;;5014566;28;20049;-72
2021/05/05 09:01:33;;;;;;;5.95;2.38;;;8.90;99.90;;;;;;5027554;28;20030;-71
2021/05/05 09:03:59;;;;;;;3.15;2.38;;;8.90;99.90;;;;;;5013721;28;20057;-71
2021/05/05 09:06:45;;;;;;;4.28;2.03;;;9.40;99.90;;;;;;5014187;28;20026;-72
2021/05/05 09:09:12;;;;;;;3.90;2.40;;;9.80;99.90;;;;;;5014264;28;20030;-71
2021/05/05 09:11:44;;;;;;;4.95;2.47;;;9.90;99.90;;;;;;5013924;28;20496;-72
2021/05/05 09:14:10;;;;;;;2.83;2.30;;;10.20;99.90;;;;;;4999965;28;20026;-71
2021/05/05 09:16:36;;;;;;;4.88;2.40;;;10.50;99.90;;;;;;5023192;28;20025;-71
2021/05/05 09:19:07;;;;;;;4.22;2.10;;;10.70;99.90;;;;;;5026197;28;20022;-71
2021/05/05 09:21:38;;;;;;;2.60;1.65;;;10.40;99.90;;;;;;4996144;28;20026;-72
2021/05/05 09:24:17;;;;;;;4.07;1.90;;;10.30;99.90;;;;;;5013523;28;20033;-71
2021/05/05 09:26:44;;;;;;;4.32;1.80;;;10.40;99.90;;;;;;5013550;28;20077;-72
2021/05/05 09:29:10;;;;;;;4.18;1.90;;;10.40;99.90;;;;;;5013352;28;20105;-72
2021/05/05 09:31:38;;;;;;;1.60;1.48;;;11.00;99.90;;;;;;5013573;28;20130;-72
2021/05/05 09:34:09;;;;;;;4.15;1.77;;;11.00;99.90;;;;;;5019875;28;20032;-72
2021/05/05 09:36:35;;;;;;;4.50;1.85;;;10.70;99.90;;;;;;5001569;28;20034;-71
2021/05/05 09:39:04;;;;;;;4.65;1.65;;;10.90;99.90;;;;;;5013924;28;20603;-73
2021/05/05 09:41:32;;;;;;;5.43;1.63;;;11.10;99.90;;;;;;5022293;28;20080;-73
2021/05/05 09:44:07;;;;;;;4.38;1.65;;;11.20;99.90;;;;;;5013363;28;20112;-71
2021/05/05 09:46:42;;;;;;;3.47;1.80;;;11.10;99.90;;;;;;5015116;28;20087;-72
2021/05/05 09:49:17;;;;;;;2.22;1.65;;;11.00;99.90;;;;;;5033363;28;20099;-73
2021/05/05 09:51:51;;;;;;;3.85;1.95;;;11.00;99.90;;;;;;5032294;28;20045;-73
2021/05/05 09:54:28;;;;;;;2.95;1.70;;;10.60;99.90;;;;;;5032814;28;20557;-73
2021/05/05 09:56:54;;;;;;;2.08;1.40;;;10.10;99.90;;;;;;5032769;28;20045;-73
2021/05/05 09:59:22;;;;;;;3.35;1.67;;;10.10;99.90;;;;;;5032845;28;20021;-71
2021/05/05 10:02:01;;;;;;;5.00;1.60;;;9.80;99.90;;;;;;5027228;28;20014;-73
2021/05/05 10:04:27;;;;;;;2.75;1.52;;;9.40;99.90;;;;;;5024614;28;20484;-73
2021/05/05 10:06:57;;;;;;;5.10;1.88;;;9.30;99.90;;;;;;5010685;28;20029;-72
2021/05/05 10:09:24;;;;;;;5.95;1.98;;;9.10;99.90;;;;;;5023281;28;20029;-73
2021/05/05 10:11:50;;;;;;;6.35;3.05;;;9.00;99.90;;;;;;5024490;28;20036;-73
2021/05/05 10:14:20;;;;;;;3.58;1.90;;;9.10;99.90;;;;;;5024762;28;20033;-73
2021/05/05 10:16:52;;;;;;;5.53;2.17;;;9.10;99.90;;;;;;5024401;28;20104;-72
2021/05/05 10:19:20;;;;;;;4.82;2.20;;;8.90;99.90;;;;;;5005893;28;20018;-71
2021/05/05 10:21:58;;;;;;;2.80;1.90;;;9.00;99.90;;;;;;5019214;28;20018;-71
2021/05/05 10:24:30;;;;;;;3.80;1.73;;;9.40;99.90;;;;;;5022092;28;20113;-73
2021/05/05 10:26:57;;;;;;;6.50;2.10;;;9.50;99.90;;;;;;5017501;28;20034;-73
2021/05/05 10:29:23;;;;;;;3.97;2.10;;;9.30;99.90;;;;;;5022883;28;20649;-72
2021/05/05 10:31:55;;;;;;;2.97;2.00;;;9.90;99.90;;;;;;5026815;28;20021;-72
2021/05/05 10:34:23;;;;;;;3.05;1.70;;;10.40;99.90;;;;;;5025240;28;20506;-73
2021/05/05 10:36:54;;;;;;;4.30;2.10;;;10.80;99.90;;;;;;5024609;28;20018;-72
2021/05/05 10:39:19;;;;;;;2.80;1.80;;;11.10;99.90;;;;;;5022515;28;20033;-74
2021/05/05 10:42:06;;;;;;;3.28;2.03;;;11.10;99.90;;;;;;5006770;28;20025;-74
2021/05/05 10:44:51;;;;;;;;;;;11.00;99.90;;;;;;5013390;28;20025;-73
2021/05/05 10:47:27;;;;;;;5.68;1.92;;;11.70;99.90;;;;;;5007434;28;19905;-74
2021/05/05 10:50:08;;;;;;;5.40;2.00;;;12.30;99.90;;;;;;5021153;28;20475;-73
2021/05/05 10:52:42;;;;;;;2.30;1.52;;;11.40;99.90;;;;;;5008682;28;20021;-72
2021/05/05 10:55:38;;;;;;;2.50;1.80;;;10.80;99.90;;;;;;5005616;28;20384;-73
2021/05/05 10:58:05;;;;;;;4.75;1.85;;;10.30;99.90;;;;;;5027083;28;20018;-72
2021/05/05 11:00:45;;;;;;;3.05;1.65;;;10.00;99.90;;;;;;5024949;28;20009;-70
2021/05/05 11:03:10;;;;;;;2.85;1.70;;;9.80;99.90;;;;;;5020305;28;20042;-73
2021/05/05 11:05:38;;;;;;;4.18;1.75;;;10.30;99.90;;;;;;5026672;28;20064;-73
2021/05/05 11:08:08;;;;;;;3.78;1.58;;;10.60;99.90;;;;;;5019920;28;20022;-72
2021/05/05 11:10:34;;;;;;;6.10;1.80;;;11.20;99.90;;;;;;4996542;28;20014;-72
2021/05/05 11:13:13;;;;;;;3.30;1.52;;;11.00;99.90;;;;;;5022222;28;20021;-72
2021/05/05 11:15:41;;;;;;;3.63;1.60;;;11.70;99.90;;;;;;5016221;28;20472;-72
2021/05/05 11:18:28;;;;;;;2.75;1.77;;;11.70;99.90;;;;;;5022900;28;20022;-73
2021/05/05 11:20:55;;;;;;;3.45;2.00;;;11.70;99.90;;;;;;5015239;28;20024;-70
2021/05/05 11:23:33;;;;;;;4.00;1.70;;;11.80;99.90;;;;;;5001622;28;20057;-71
2021/05/05 11:26:17;;;;;;;3.88;1.70;;;11.60;99.90;;;;;;5003305;28;20017;-72
2021/05/05 11:29:02;;;;;;;3.47;1.85;;;11.50;99.90;;;;;;4994059;28;20076;-72
2021/05/05 11:31:46;;;;;;;4.80;2.03;;;11.80;99.90;;;;;;5011800;28;20022;-72
2021/05/05 11:34:21;;;;;;;2.97;1.50;;;12.20;99.40;;;;;;4993971;28;20026;-71
2021/05/05 11:37:01;;;;;;;2.88;1.55;;;12.20;99.80;;;;;;5011780;28;20495;-72
2021/05/05 11:39:29;;;;;;;2.65;1.42;;;11.50;98.00;;;;;;5011801;28;20029;-73
2021/05/05 11:41:57;;;;;;;2.60;1.70;;;11.90;99.90;;;;;;5003919;28;20027;-71
2021/05/05 11:44:52;;;;;;;3.95;1.40;;;11.40;99.90;;;;;;5013713;28;20044;-71
2021/05/05 11:47:20;;;;;;;3.35;1.40;;;10.90;99.90;;;;;;5009888;28;20045;-73
2021/05/05 11:49:57;;;;;;;4.13;1.80;;;10.80;99.90;;;;;;5031303;28;20037;-73
2021/05/05 11:52:31;;;;;;;3.92;1.48;;;10.40;99.90;;;;;;5013313;28;20049;-72
2021/05/05 11:55:07;;;;;;;4.63;1.42;;;10.20;99.90;;;;;;5030939;28;20061;-72
2021/05/05 11:57:47;;;;;;;1.33;1.20;;;9.50;99.90;;;;;;5019169;28;20138;-72
2021/05/05 12:00:36;;;;;;;3.75;2.15;;;8.70;99.90;;;;;;5005884;28;20120;-72
2021/05/05 12:03:07;;;;;;;3.47;1.95;;;8.00;99.90;;;;;;5031090;28;20022;-71
2021/05/05 12:05:45;;;;;;;3.53;2.22;;;7.40;99.90;;;;;;5030850;28;20036;-70
2021/05/05 12:08:25;;;;;;;5.05;2.30;;;7.20;99.90;;;;;;5030931;28;20034;-73
2021/05/05 12:11:02;;;;;;;3.63;2.35;;;7.30;99.90;;;;;;5013312;28;20030;-73
2021/05/05 12:13:35;;;;;;;3.83;2.05;;;7.20;99.90;;;;;;5013417;28;20068;-72
2021/05/05 12:16:17;;;;;;;3.38;2.53;;;7.20;99.90;;;;;;5033715;28;20388;-72
2021/05/05 12:18:48;;;;;;;5.13;2.13;;;7.30;99.90;;;;;;5030251;28;20358;-70
2021/05/05 12:21:19;;;;;;;3.22;1.90;;;7.40;99.90;;;;;;5015066;28;20098;-71
2021/05/05 12:23:50;;;;;;;2.45;2.03;;;7.30;99.90;;;;;;5014579;28;20029;-71
2021/05/05 12:26:27;;;;;;;4.45;2.35;;;7.30;99.90;;;;;;5014772;28;20109;-71
2021/05/05 12:28:55;;;;;;;4.03;2.50;;;7.40;99.90;;;;;;5014758;28;20392;-71
2021/05/05 12:31:24;;;;;;;4.00;2.20;;;7.90;99.90;;;;;;5014407;28;20034;-71
2021/05/05 12:33:50;;;;;;;2.95;1.90;;;8.10;99.90;;;;;;5014281;28;20480;-71
2021/05/05 12:36:21;;;;;;;3.08;1.80;;;8.60;99.90;;;;;;5014526;28;20500;-71
2021/05/05 12:38:52;;;;;;;3.20;1.70;;;9.20;99.90;;;;;;5014326;28;20046;-71
2021/05/05 12:41:20;;;;;;;4.15;2.10;;;9.30;99.90;;;;;;5014431;28;20026;-72
2021/05/05 12:43:48;;;;;;;2.20;1.92;;;9.20;99.90;;;;;;5014136;28;20450;-71
2021/05/05 12:46:25;;;;;;;2.65;1.60;;;9.50;99.90;;;;;;5014266;28;20504;-71
2021/05/05 12:48:57;;;;;;;4.30;1.55;;;9.40;99.90;;;;;;5014366;28;20026;-71
2021/05/05 12:51:25;;;;;;;1.83;1.30;;;8.70;99.90;;;;;;4997053;28;20037;-71
2021/05/05 12:54:09;;;;;;;1.40;1.30;;;7.90;99.90;;;;;;4979584;28;20034;-72
2021/05/05 12:56:47;;;;;;;1.90;1.40;;;6.60;99.90;;;;;;4981657;28;20079;-71
2021/05/05 12:59:30;;;;;;;3.33;1.25;;;6.20;99.90;;;;;;5014122;28;20033;-70
2021/05/05 13:02:16;;;;;;;2.78;1.75;;;6.00;99.90;;;;;;4982279;28;20060;-72
2021/05/05 13:05:06;;;;;;;1.95;1.70;;;5.90;99.90;;;;;;5000019;28;20046;-71
2021/05/05 13:07:50;;;;;;;2.65;1.95;;;6.00;99.90;;;;;;5013987;28;20056;-71
2021/05/05 13:10:30;;;;;;;2.65;2.00;;;6.00;99.90;;;;;;4997884;28;20061;-71